createdAt,value
2018-09-03T00:01:41.102Z,97608.06
2018-09-03T00:04:09.574Z,97603.38
2018-09-03T00:06:38.086Z,97603.77
2018-09-03T00:09:08.863Z,97604.66
2018-09-03T00:11:37.366Z,97602.94
2018-09-03T00:14:06.031Z,97596.53
2018-09-03T00:16:34.652Z,97589.28
2018-09-03T00:19:03.273Z,97584.16
2018-09-03T00:21:32.036Z,97583.28
2018-09-03T00:24:00.595Z,97583.28
2018-09-03T00:26:29.083Z,97576.87
2018-09-03T00:28:57.642Z,97567.91
2018-09-03T00:31:31.496Z,97571.75
2018-09-03T00:34:05.394Z,97574.31
2018-09-03T00:36:39.044Z,97579.44
2018-09-03T00:39:13.315Z,97584.56
2018-09-03T00:41:47.235Z,97576.44
2018-09-03T00:44:21.094Z,97572.16
2018-09-03T00:46:54.683Z,97567.03
2018-09-03T00:49:23.215Z,97572.59
2018-09-03T00:51:51.728Z,97578.16
2018-09-03T00:54:20.266Z,97569.16
2018-09-03T00:56:48.811Z,97561.47
2018-09-03T00:59:17.407Z,97563.19
2018-09-03T01:01:45.934Z,97556.34
2018-09-03T01:04:14.450Z,97560.19
2018-09-03T01:06:42.975Z,97560.59
2018-09-03T01:09:11.549Z,97554.66
2018-09-03T01:11:40.051Z,97551.22
2018-09-03T01:14:08.584Z,97553.78
2018-09-03T01:16:37.211Z,97546.94
2018-09-03T01:19:05.952Z,97547.78
2018-09-03T01:21:34.926Z,97552.10
2018-09-03T01:24:03.408Z,97540.98
2018-09-03T01:26:31.937Z,97546.10
2018-09-03T01:29:00.446Z,97550.34
2018-09-03T01:31:29.007Z,97548.66
2018-09-03T01:33:57.550Z,97540.98
2018-09-03T01:36:26.082Z,97543.54
2018-09-03T01:38:54.610Z,97539.30
2018-09-03T01:41:23.191Z,97532.85
2018-09-03T01:43:51.694Z,97536.70
2018-09-03T01:46:20.272Z,97533.25
2018-09-03T01:48:48.789Z,97533.25
2018-09-03T01:51:17.314Z,97533.66
2018-09-03T01:53:45.823Z,97533.66
2018-09-03T01:56:14.354Z,97536.66
2018-09-03T01:58:43.594Z,97550.74
2018-09-03T02:01:12.203Z,97549.91
2018-09-03T02:03:40.713Z,97549.46
2018-09-03T02:06:09.194Z,97535.41
2018-09-03T02:08:37.769Z,97537.50
2018-09-03T02:11:06.421Z,97531.09
2018-09-03T02:13:35.213Z,97528.13
2018-09-03T02:16:03.762Z,97529.41
2018-09-03T02:18:32.304Z,97518.73
2018-09-03T02:21:00.868Z,97520.85
2018-09-03T02:23:29.387Z,97527.25
2018-09-03T02:25:57.919Z,97525.53
2018-09-03T02:28:26.551Z,97528.09
2018-09-03T02:30:55.066Z,97514.01
2018-09-03T02:33:23.682Z,97510.16
2018-09-03T02:35:52.225Z,97517.45
2018-09-03T02:38:20.778Z,97520.81
2018-09-03T02:40:49.307Z,97518.25
2018-09-03T02:43:17.865Z,97511.45
2018-09-03T02:45:46.465Z,97506.28
2018-09-03T02:48:15.023Z,97497.32
2018-09-03T02:50:43.498Z,97492.64
2018-09-03T02:53:12.092Z,97489.16
2018-09-03T02:55:40.606Z,97487.88
2018-09-03T02:58:09.117Z,97488.36
2018-09-03T03:00:37.678Z,97490.08
2018-09-03T03:03:06.338Z,97481.55
2018-09-03T03:05:34.906Z,97484.15
2018-09-03T03:08:03.719Z,97478.55
2018-09-03T03:10:32.217Z,97476.87
2018-09-03T03:13:00.868Z,97470.03
2018-09-03T03:15:29.405Z,97469.59
2018-09-03T03:17:57.925Z,97455.94
2018-09-03T03:20:26.522Z,97460.63
2018-09-03T03:22:55.125Z,97457.63
2018-09-03T03:25:23.692Z,97451.26
2018-09-03T03:27:52.333Z,97445.70
2018-09-03T03:30:20.909Z,97449.54
2018-09-03T03:32:49.482Z,97451.26
2018-09-03T03:35:18.001Z,97453.38
2018-09-03T03:37:48.166Z,97454.66
2018-09-03T03:40:17.692Z,97449.09
2018-09-03T03:42:46.222Z,97446.97
2018-09-03T03:45:14.816Z,97448.30
2018-09-03T03:47:43.383Z,97450.38
2018-09-03T03:50:12.004Z,97445.70
2018-09-03T03:52:40.574Z,97443.14
2018-09-03T03:55:09.187Z,97441.42
2018-09-03T03:57:37.965Z,97434.17
2018-09-03T04:00:06.871Z,97428.61
2018-09-03T04:02:35.458Z,97432.45
2018-09-03T04:05:04.146Z,97433.30
2018-09-03T04:07:32.719Z,97436.73
2018-09-03T04:10:01.323Z,97437.58
2018-09-03T04:12:29.938Z,97435.89
2018-09-03T04:14:58.496Z,97440.61
2018-09-03T04:17:27.096Z,97442.73
2018-09-03T04:20:00.123Z,97442.26
2018-09-03T04:22:29.023Z,97444.81
2018-09-03T04:24:57.887Z,97445.22
2018-09-03T04:27:26.470Z,97441.78
2018-09-03T04:29:55.103Z,97446.09
2018-09-03T04:32:23.884Z,97451.66
2018-09-03T04:34:52.411Z,97452.50
2018-09-03T04:37:21.259Z,97448.25
2018-09-03T04:39:49.894Z,97447.37
2018-09-03T04:42:18.395Z,97450.34
2018-09-03T04:44:47.007Z,97455.06
2018-09-03T04:47:15.591Z,97449.54
2018-09-03T04:49:44.156Z,97444.41
2018-09-03T04:52:12.666Z,97443.54
2018-09-03T04:54:41.297Z,97440.57
2018-09-03T04:57:09.804Z,97445.22
2018-09-03T04:59:38.372Z,97442.26
2018-09-03T05:02:07.354Z,97446.09
2018-09-03T05:04:35.965Z,97448.66
2018-09-03T05:07:04.529Z,97447.78
2018-09-03T05:09:33.403Z,97447.37
2018-09-03T05:12:01.984Z,97448.25
2018-09-03T05:14:30.638Z,97444.34
2018-09-03T05:16:59.182Z,97450.34
2018-09-03T05:19:27.828Z,97450.81
2018-09-03T05:21:56.382Z,97447.37
2018-09-03T05:24:24.948Z,97448.66
2018-09-03T05:26:53.530Z,97453.38
2018-09-03T05:29:22.153Z,97443.98
2018-09-03T05:31:50.755Z,97440.97
2018-09-03T05:34:19.314Z,97443.14
2018-09-03T05:36:47.889Z,97442.26
2018-09-03T05:39:16.490Z,97445.22
2018-09-03T05:41:45.025Z,97446.50
2018-09-03T05:44:13.686Z,97441.78
2018-09-03T05:46:42.299Z,97435.78
2018-09-03T05:49:10.946Z,97436.26
2018-09-03T05:51:39.477Z,97428.98
2018-09-03T05:54:08.037Z,97437.06
2018-09-03T05:56:36.876Z,97438.34
2018-09-03T05:59:05.735Z,97427.22
2018-09-03T06:01:34.309Z,97425.54
2018-09-03T06:04:03.010Z,97426.82
2018-09-03T06:06:31.576Z,97424.73
2018-09-03T06:09:00.235Z,97426.02
2018-09-03T06:11:28.805Z,97417.86
2018-09-03T06:13:57.327Z,97422.98
2018-09-03T06:16:25.922Z,97415.30
2018-09-03T06:18:54.411Z,97421.30
2018-09-03T06:21:23.000Z,97417.86
2018-09-03T06:23:51.638Z,97414.42
2018-09-03T06:26:20.255Z,97411.86
2018-09-03T06:28:48.859Z,97410.58
2018-09-03T06:31:17.706Z,97406.73
2018-09-03T06:33:46.242Z,97414.86
2018-09-03T06:36:14.839Z,97384.02
2018-09-03T06:38:43.790Z,97413.14
2018-09-03T06:41:12.359Z,97414.86
2018-09-03T06:43:41.020Z,97419.54
2018-09-03T06:46:09.578Z,97419.54
2018-09-03T06:48:38.186Z,97424.66
2018-09-03T06:51:06.792Z,97431.06
2018-09-03T06:53:35.532Z,97439.19
2018-09-03T06:56:04.144Z,97439.59
2018-09-03T06:58:32.967Z,97440.47
2018-09-03T07:01:01.532Z,97431.91
2018-09-03T07:03:30.146Z,97436.62
2018-09-03T07:05:58.715Z,97434.47
2018-09-03T07:08:27.247Z,97440.47
2018-09-03T07:10:55.810Z,97440.87
2018-09-03T07:13:24.309Z,97445.98
2018-09-03T07:15:52.876Z,97442.59
2018-09-03T07:18:21.399Z,97451.11
2018-09-03T07:20:49.911Z,97452.39
2018-09-03T07:23:18.405Z,97455.36
2018-09-03T07:25:46.929Z,97451.52
2018-09-03T07:28:15.454Z,97451.95
2018-09-03T07:30:44.010Z,97448.52
2018-09-03T07:33:12.523Z,97449.39
2018-09-03T07:35:41.060Z,97452.80
2018-09-03T07:38:09.599Z,97446.83
2018-09-03T07:40:38.224Z,97433.59
2018-09-03T07:43:06.823Z,97427.63
2018-09-03T07:45:35.418Z,97431.91
2018-09-03T07:48:04.336Z,97421.66
2018-09-03T07:50:32.899Z,97416.94
2018-09-03T07:53:01.459Z,97413.58
2018-09-03T07:55:29.986Z,97414.09
2018-09-03T07:57:58.521Z,97414.89
2018-09-03T08:00:27.079Z,97418.37
2018-09-03T08:02:55.635Z,97418.80
2018-09-03T08:05:24.119Z,97427.77
2018-09-03T08:07:52.622Z,97424.33
2018-09-03T08:10:21.092Z,97427.77
2018-09-03T08:12:49.684Z,97430.33
2018-09-03T08:15:18.483Z,97426.05
2018-09-03T08:17:46.990Z,97426.48
2018-09-03T08:20:16.047Z,97426.48
2018-09-03T08:22:44.553Z,97426.92
2018-09-03T08:25:13.054Z,97417.52
2018-09-03T08:27:41.618Z,97421.41
2018-09-03T08:30:10.194Z,97429.09
2018-09-03T08:32:38.710Z,97423.96
2018-09-03T08:35:07.276Z,97428.20
2018-09-03T08:37:35.856Z,97425.24
2018-09-03T08:40:04.541Z,97424.80
2018-09-03T08:42:32.994Z,97425.75
2018-09-03T08:45:01.532Z,97425.35
2018-09-03T08:47:30.038Z,97420.23
2018-09-03T08:49:58.561Z,97421.52
2018-09-03T08:52:27.147Z,97420.63
2018-09-03T08:54:55.724Z,97418.91
2018-09-03T08:57:24.282Z,97419.72
2018-09-03T08:59:52.900Z,97411.59
2018-09-03T09:02:21.502Z,97419.72
2018-09-03T09:04:50.073Z,97417.13
2018-09-03T09:07:18.682Z,97417.96
2018-09-03T09:09:47.306Z,97406.84
2018-09-03T09:12:16.527Z,97404.72
2018-09-03T09:14:45.235Z,97408.56
2018-09-03T09:17:13.879Z,97406.00
2018-09-03T09:19:42.589Z,97402.09
2018-09-03T09:22:11.264Z,97406.40
2018-09-03T09:24:39.905Z,97398.31
2018-09-03T09:27:08.625Z,97397.03
2018-09-03T09:29:37.322Z,97398.72
2018-09-03T09:32:06.175Z,97396.56
2018-09-03T09:34:34.840Z,97400.00
2018-09-03T09:37:03.633Z,97390.09
2018-09-03T09:39:32.197Z,97394.41
2018-09-03T09:42:00.760Z,97394.80
2018-09-03T09:44:29.292Z,97394.77
2018-09-03T09:46:57.831Z,97397.70
2018-09-03T09:49:26.429Z,97396.42
2018-09-03T09:51:54.970Z,97397.27
2018-09-03T09:54:23.494Z,97403.22
2018-09-03T09:56:52.071Z,97403.22
2018-09-03T09:59:20.633Z,97397.66
2018-09-03T10:01:49.129Z,97396.38
2018-09-03T10:04:23.921Z,97403.22
2018-09-03T10:06:52.439Z,97403.26
2018-09-03T10:09:20.954Z,97399.82
2018-09-03T10:11:49.488Z,97396.38
2018-09-03T10:14:17.992Z,97397.27
2018-09-03T10:16:46.499Z,97390.42
2018-09-03T10:19:15.003Z,97386.14
2018-09-03T10:21:43.650Z,97381.02
2018-09-03T10:24:12.325Z,97379.34
2018-09-03T10:26:41.002Z,97384.05
2018-09-03T10:29:09.727Z,97382.77
2018-09-03T10:31:38.202Z,97386.17
2018-09-03T10:34:06.677Z,97383.17
2018-09-03T10:36:35.222Z,97385.33
2018-09-03T10:39:06.673Z,97380.61
2018-09-03T10:41:35.350Z,97384.05
2018-09-03T10:44:03.875Z,97380.61
2018-09-03T10:46:32.382Z,97380.61
2018-09-03T10:49:00.875Z,97380.21
2018-09-03T10:51:29.399Z,97381.89
2018-09-03T10:53:57.892Z,97376.77
2018-09-03T10:56:26.399Z,97382.77
2018-09-03T10:58:54.891Z,97377.17
2018-09-03T11:01:23.367Z,97385.77
2018-09-03T11:03:51.833Z,97387.93
2018-09-03T11:06:20.328Z,97382.81
2018-09-03T11:08:48.915Z,97380.66
2018-09-03T11:11:17.407Z,97382.34
2018-09-03T11:13:45.890Z,97384.49
2018-09-03T11:16:14.389Z,97374.25
2018-09-03T11:18:42.903Z,97377.21
2018-09-03T11:21:11.432Z,97382.34
2018-09-03T11:23:39.886Z,97381.05
2018-09-03T11:26:08.371Z,97375.94
2018-09-03T11:28:36.844Z,97372.09
2018-09-03T11:31:05.468Z,97372.97
2018-09-03T11:33:33.892Z,97371.28
2018-09-03T11:36:02.374Z,97366.56
2018-09-03T11:38:30.883Z,97367.44
2018-09-03T11:40:59.367Z,97364.88
2018-09-03T11:43:27.889Z,97358.00
2018-09-03T11:45:56.374Z,97365.69
2018-09-03T11:48:24.855Z,97363.56
2018-09-03T11:50:53.333Z,97360.16
2018-09-03T11:53:21.819Z,97356.73
2018-09-03T11:55:50.315Z,97356.73
2018-09-03T11:58:18.856Z,97355.45
2018-09-03T12:00:47.380Z,97361.84
2018-09-03T12:03:15.867Z,97362.69
2018-09-03T12:05:44.401Z,97364.00
2018-09-03T12:08:12.896Z,97356.29
2018-09-03T12:10:41.378Z,97357.16
2018-09-03T12:13:09.943Z,97355.45
2018-09-03T12:15:42.085Z,97352.89
2018-09-03T12:18:10.574Z,97358.00
2018-09-03T12:20:39.107Z,97363.60
2018-09-03T12:23:07.605Z,97357.16
2018-09-03T12:25:36.099Z,97353.32
2018-09-03T12:28:04.584Z,97339.23
2018-09-03T12:30:33.085Z,97337.95
2018-09-03T12:33:01.591Z,97350.33
2018-09-03T12:35:30.109Z,97351.16
2018-09-03T12:37:58.600Z,97357.16
2018-09-03T12:40:27.092Z,97360.56
2018-09-03T12:42:55.630Z,97367.84
2018-09-03T12:45:29.030Z,97359.29
2018-09-03T12:47:57.651Z,97352.45
2018-09-03T12:50:26.151Z,97362.28
2018-09-03T12:52:54.640Z,97366.60
2018-09-03T12:55:23.155Z,97366.97
2018-09-03T12:57:51.694Z,97361.84
2018-09-03T13:00:20.469Z,97366.97
2018-09-03T13:02:49.401Z,97366.97
2018-09-03T13:05:18.963Z,97370.41
2018-09-03T13:08:08.562Z,97370.81
2018-09-03T13:10:37.306Z,97371.69
2018-09-03T13:13:06.158Z,97363.56
2018-09-03T13:15:34.776Z,97368.69
2018-09-03T13:18:03.436Z,97364.84
2018-09-03T13:20:32.035Z,97360.12
2018-09-03T13:23:00.769Z,97366.53
2018-09-03T13:25:29.250Z,97355.00
2018-09-03T13:27:57.738Z,97357.16
2018-09-03T13:30:26.240Z,97354.60
2018-09-03T13:32:54.807Z,97349.89
2018-09-03T13:35:23.294Z,97349.89
2018-09-03T13:37:51.796Z,97345.64
2018-09-03T13:40:20.300Z,97341.33
2018-09-03T13:42:48.809Z,97345.61
2018-09-03T13:45:17.316Z,97345.61
2018-09-03T13:47:45.850Z,97348.61
2018-09-03T13:50:14.349Z,97342.61
2018-09-03T13:52:43.095Z,97341.33
2018-09-03T13:55:11.667Z,97343.89
2018-09-03T13:57:40.139Z,97338.77
2018-09-03T14:00:09.692Z,97337.92
2018-09-03T14:02:38.354Z,97336.20
2018-09-03T14:05:07.065Z,97331.52
2018-09-03T14:07:35.743Z,97333.64
2018-09-03T14:10:04.276Z,97328.96
2018-09-03T14:12:32.770Z,97331.96
2018-09-03T14:15:01.320Z,97330.23
2018-09-03T14:17:29.869Z,97326.40
2018-09-03T14:19:58.948Z,97329.36
2018-09-03T14:22:27.460Z,97331.92
2018-09-03T14:24:56.078Z,97331.52
2018-09-03T14:27:24.618Z,97333.20
2018-09-03T14:29:53.426Z,97327.72
2018-09-03T14:32:22.074Z,97323.03
2018-09-03T14:34:50.807Z,97324.72
2018-09-03T14:37:19.392Z,97331.12
2018-09-03T14:39:48.046Z,97329.84
2018-09-03T14:42:16.704Z,97323.88
2018-09-03T14:44:45.330Z,97322.16
2018-09-03T14:47:14.161Z,97316.63
2018-09-03T14:49:43.142Z,97316.66
2018-09-03T14:52:12.978Z,97313.23
2018-09-03T14:54:41.710Z,97319.16
2018-09-03T14:57:11.526Z,97314.03
2018-09-03T14:59:40.281Z,97320.84
2018-09-03T15:02:08.999Z,97310.20
2018-09-03T15:04:37.952Z,97315.31
2018-09-03T15:07:07.110Z,96470.66
2018-09-03T15:09:35.912Z,97320.00
2018-09-03T15:12:04.811Z,97320.00
2018-09-03T15:14:33.561Z,97318.72
2018-09-03T15:17:02.265Z,97315.28
2018-09-03T15:19:30.866Z,97315.69
2018-09-03T15:21:59.663Z,97313.59
2018-09-03T15:24:28.508Z,97313.59
2018-09-03T15:26:57.152Z,97315.28
2018-09-03T15:29:26.021Z,97315.69
2018-09-03T15:31:54.721Z,97314.00
2018-09-03T15:34:23.471Z,97316.97
2018-09-03T15:36:52.125Z,97317.84
2018-09-03T15:39:20.826Z,97315.28
2018-09-03T15:41:49.363Z,97318.72
2018-09-03T15:44:17.976Z,97315.69
2018-09-03T15:46:47.606Z,97306.72
2018-09-03T15:49:16.166Z,97309.28
2018-09-03T15:51:44.679Z,97306.72
2018-09-03T15:54:13.362Z,97307.16
2018-09-03T15:56:41.726Z,97312.72
2018-09-03T15:59:11.304Z,97307.16
2018-09-03T16:01:39.810Z,97319.13
2018-09-03T16:04:08.315Z,97310.56
2018-09-03T16:06:36.851Z,97309.72
2018-09-03T16:09:08.291Z,97315.69
2018-09-03T16:11:37.019Z,97314.41
2018-09-03T16:14:05.657Z,97304.16
2018-09-03T16:16:34.163Z,97310.13
2018-09-03T16:19:02.634Z,97313.56
2018-09-03T16:21:31.124Z,97315.69
2018-09-03T16:23:59.613Z,97319.97
2018-09-03T16:26:28.100Z,97327.20
2018-09-03T16:28:56.593Z,97329.33
2018-09-03T16:31:25.080Z,97330.20
2018-09-03T16:33:53.624Z,97329.33
2018-09-03T16:36:22.107Z,97334.45
2018-09-03T16:38:50.670Z,97328.05
2018-09-03T16:41:19.254Z,97331.05
2018-09-03T16:43:47.743Z,97323.33
2018-09-03T16:46:16.294Z,97324.20
2018-09-03T16:48:44.795Z,97327.17
2018-09-03T16:51:13.293Z,97328.05
2018-09-03T16:53:41.833Z,97331.02
2018-09-03T16:56:10.307Z,97331.02
2018-09-03T16:58:38.807Z,97325.08
2018-09-03T17:01:07.456Z,97322.05
2018-09-03T17:03:35.896Z,97316.94
2018-09-03T17:06:04.387Z,97322.05
2018-09-03T17:08:32.866Z,97325.05
2018-09-03T17:11:01.362Z,97318.17
2018-09-03T17:13:29.883Z,97320.77
2018-09-03T17:15:58.395Z,97319.05
2018-09-03T17:18:26.886Z,97325.86
2018-09-03T17:20:55.364Z,97327.14
2018-09-03T17:23:23.858Z,97329.70
2018-09-03T17:25:52.443Z,97335.30
2018-09-03T17:28:21.067Z,97330.98
2018-09-03T17:30:49.725Z,97335.70
2018-09-03T17:33:18.471Z,97339.53
2018-09-03T17:35:47.756Z,97334.42
2018-09-03T17:38:16.364Z,97338.70
2018-09-03T17:40:44.964Z,97332.27
2018-09-03T17:43:13.634Z,97337.42
2018-09-03T17:45:42.299Z,97333.54
2018-09-03T17:48:10.934Z,97333.13
2018-09-03T17:50:39.608Z,97334.82
2018-09-03T17:53:08.108Z,97342.98
2018-09-03T17:55:36.613Z,97345.06
2018-09-03T17:58:05.148Z,97342.98
2018-09-03T18:00:33.654Z,97345.94
2018-09-03T18:03:02.192Z,97351.06
2018-09-03T18:05:30.695Z,97351.06
2018-09-03T18:07:59.200Z,97357.46
2018-09-03T18:10:27.723Z,97354.91
2018-09-03T18:12:56.224Z,97357.06
2018-09-03T18:15:24.733Z,97356.15
2018-09-03T18:17:53.255Z,97353.19
2018-09-03T18:20:21.754Z,97348.09
2018-09-03T18:22:50.278Z,97350.19
2018-09-03T18:25:18.894Z,97357.46
2018-09-03T18:27:47.384Z,97361.30
2018-09-03T18:30:16.012Z,97362.98
2018-09-03T18:32:44.450Z,97372.42
2018-09-03T18:35:12.935Z,97368.14
2018-09-03T18:37:41.510Z,97373.27
2018-09-03T18:40:09.985Z,97369.86
2018-09-03T18:42:38.467Z,97378.83
2018-09-03T18:45:08.074Z,97377.55
2018-09-03T18:47:36.569Z,97373.70
2018-09-03T18:50:05.568Z,97378.83
2018-09-03T18:52:34.449Z,97378.83
2018-09-03T18:55:03.131Z,97384.75
2018-09-03T18:57:32.045Z,97387.31
2018-09-03T19:00:00.681Z,97390.75
2018-09-03T19:02:29.319Z,97388.19
2018-09-03T19:05:00.070Z,97386.50
2018-09-03T19:07:28.734Z,97390.34
2018-09-03T19:09:57.386Z,97395.91
2018-09-03T19:12:25.920Z,97386.50
2018-09-03T19:14:54.479Z,97387.34
2018-09-03T19:17:23.074Z,97391.23
2018-09-03T19:19:51.824Z,97387.78
2018-09-03T19:22:20.508Z,97388.63
2018-09-03T19:24:49.048Z,97387.78
2018-09-03T19:27:17.782Z,97387.78
2018-09-03T19:29:47.241Z,97386.07
2018-09-03T19:32:17.233Z,97386.07
2018-09-03T19:34:46.117Z,97383.11
2018-09-03T19:37:14.751Z,97382.23
2018-09-03T19:39:43.457Z,97381.38
2018-09-03T19:42:12.254Z,97384.38
2018-09-03T19:44:40.923Z,97382.23
2018-09-03T19:47:10.656Z,97380.95
2018-09-03T19:49:39.154Z,97379.23
2018-09-03T19:52:07.691Z,97376.67
2018-09-03T19:54:37.500Z,97376.27
2018-09-03T19:57:07.894Z,97381.83
2018-09-03T19:59:36.547Z,97380.95
2018-09-03T20:02:05.108Z,97383.51
2018-09-03T20:04:33.734Z,97379.27
2018-09-03T20:07:02.352Z,97383.51
2018-09-03T20:09:30.879Z,97386.95
2018-09-03T20:11:59.526Z,97383.95
2018-09-03T20:14:28.994Z,97383.95
2018-09-03T20:16:57.573Z,97383.11
2018-09-03T20:19:27.166Z,97379.23
2018-09-03T20:21:55.947Z,97385.23
2018-09-03T20:24:24.699Z,97383.07
2018-09-03T20:26:53.285Z,97380.50
2018-09-03T20:29:21.874Z,97375.39
2018-09-03T20:31:50.614Z,97371.98
2018-09-03T20:34:19.214Z,97374.11
2018-09-03T20:36:47.855Z,97375.42
2018-09-03T20:39:16.443Z,97368.58
2018-09-03T20:41:45.726Z,97370.27
2018-09-03T20:44:14.386Z,97369.86
2018-09-03T20:46:42.952Z,97362.98
2018-09-03T20:49:11.628Z,97357.86
2018-09-03T20:51:40.356Z,97361.30
2018-09-03T20:54:08.988Z,97363.42
2018-09-03T20:56:37.629Z,97361.30
2018-09-03T20:59:06.246Z,97091.00
2018-09-03T21:01:35.773Z,97366.05
2018-09-03T21:04:04.408Z,97361.38
2018-09-03T21:06:33.024Z,97356.19
2018-09-03T21:09:01.560Z,97368.14
2018-09-03T21:11:30.158Z,97368.62
2018-09-03T21:13:58.839Z,97365.17
2018-09-03T21:16:27.460Z,97365.17
2018-09-03T21:18:56.032Z,97363.53
2018-09-03T21:21:24.583Z,97357.97
2018-09-03T21:23:53.233Z,97359.69
2018-09-03T21:26:21.725Z,97355.00
2018-09-03T21:28:50.375Z,97355.88
2018-09-03T21:31:18.947Z,97351.57
2018-09-03T21:33:47.478Z,97355.45
2018-09-03T21:36:16.010Z,97357.16
2018-09-03T21:38:44.555Z,97352.45
2018-09-03T21:41:13.150Z,97353.77
2018-09-03T21:43:41.691Z,97356.73
2018-09-03T21:46:10.326Z,97355.45
2018-09-03T21:48:38.889Z,97355.05
2018-09-03T21:51:07.409Z,97349.92
2018-09-03T21:53:35.962Z,97351.60
2018-09-03T21:56:04.446Z,97346.48
2018-09-03T21:58:32.962Z,97351.20
2018-09-03T22:01:01.507Z,97348.64
2018-09-03T22:03:30.035Z,97349.89
2018-09-03T22:05:58.656Z,97351.60
2018-09-03T22:08:27.224Z,97353.32
2018-09-03T22:10:55.750Z,97353.73
2018-09-03T22:13:24.262Z,97357.97
2018-09-03T22:15:52.854Z,97359.72
2018-09-03T22:18:21.463Z,96936.61
2018-09-03T22:20:50.009Z,97359.29
2018-09-03T22:23:19.277Z,97358.00
2018-09-03T22:25:47.773Z,97355.00
2018-09-03T22:28:16.314Z,97354.13
2018-09-03T22:30:44.854Z,97346.92
2018-09-03T22:33:13.357Z,97349.89
2018-09-03T22:35:41.891Z,97344.77
2018-09-03T22:38:10.450Z,97344.36
2018-09-03T22:40:38.975Z,97344.77
2018-09-03T22:43:07.611Z,97347.77
2018-09-03T22:45:36.122Z,97334.92
2018-09-03T22:48:04.608Z,97340.92
2018-09-03T22:50:33.686Z,97341.33
2018-09-03T22:53:02.218Z,97338.36
2018-09-03T22:55:30.933Z,97339.23
2018-09-03T22:57:59.457Z,97342.20
2018-09-03T23:00:28.058Z,97333.23
2018-09-03T23:02:57.269Z,97339.64
2018-09-03T23:05:25.803Z,97339.64
2018-09-03T23:07:54.343Z,97336.64
2018-09-03T23:10:22.918Z,97338.33
2018-09-03T23:12:51.484Z,97340.05
2018-09-03T23:15:19.991Z,97338.73
2018-09-03T23:17:48.519Z,97339.61
2018-09-03T23:20:17.027Z,97343.45
2018-09-03T23:22:45.531Z,97347.29
2018-09-03T23:25:14.089Z,97340.02
2018-09-03T23:27:43.481Z,97343.05
2018-09-03T23:30:11.979Z,97345.61
2018-09-03T23:32:40.495Z,97338.73
2018-09-03T23:35:09.020Z,97337.45
2018-09-03T23:37:37.574Z,97332.33
2018-09-03T23:40:06.807Z,97334.05
2018-09-03T23:42:35.353Z,97330.20
2018-09-03T23:45:03.902Z,97329.73
2018-09-03T23:47:32.414Z,97324.24
2018-09-03T23:50:00.934Z,97324.65
2018-09-03T23:52:29.467Z,97314.41
2018-09-03T23:54:58.031Z,97308.44
2018-09-03T23:57:28.361Z,97311.41
2018-09-03T23:59:56.861Z,97310.53
